Latest Coastal Weather Observations for Rhyll

IDV60701

Issued at 10:32 pm EST Tuesday 25 April 2017 (issued every 10 minutes, with the page automatically refreshed every 10 minutes)

About coastal observations | Map of coastal stations | Coastal observations for VIC | Marine services | Other Formats
Station Details ID: 086373 Name: RHYLL Lat: -38.46 Lon: 145.31 Height: 13.4 m
Data from the previous 72 hours. | See also: Recent months at Rhyll
Date/Time
EST
Temp
°C
Wind Pressure Rain since
9am
mm
Weather Cloud Vis
km
Sea
Height
m
Swell
Dir  Spd
kts
Gust
kts
hPa Trend Height
m
Period
s
Dir
25/10:30pm 14.5 W 6 13 1004.0 - 5.0 - - - - - - -
25/10:00pm 14.8 NW 10 18 1004.1 - 5.0 - - - - - - -
25/09:30pm 15.6 N 7 13 1004.1 - 3.8 - - - - - - -
25/09:00pm 15.1 N 7 12 1004.2 - 3.8 - - - - - - -
25/08:30pm 15.1 N 10 15 1004.9 - 3.8 - - - - - - -
25/08:00pm 15.1 N 9 11 1005.2 - 3.8 - - - - - - -
25/07:30pm 15.4 N 5 7 1005.3 - 3.8 - - - - - - -
25/07:00pm 15.1 NNW 5 8 1005.7 - 3.8 - - - - - - -
25/06:30pm 14.5 NW 2 3 1005.9 - 3.8 - - - - - - -
25/06:00pm 14.6 W 1 2 1006.0 - 3.8 - - - - - - -
25/05:30pm 15.3 WSW 3 5 1006.0 - 3.8 - - - - - - -
25/05:00pm 15.6 WSW 3 4 1006.1 - 3.8 - - - - - - -
25/04:30pm 16.4 WSW 4 11 1006.2 - 3.8 - - - - - - -
25/04:00pm 16.4 WSW 5 9 1006.1 - 3.8 - - - - - - -
25/03:30pm 17.0 WSW 6 11 1006.2 - 3.8 - - - - - - -
25/03:00pm 16.6 SW 8 15 1006.1 - 3.8 - - - - - - -
25/02:30pm 16.7 SW 8 14 1006.2 - 3.8 - - - - - - -
25/02:00pm 16.1 SW 9 16 1006.4 - 3.8 - - - - - - -
25/01:30pm 16.0 SW 9 16 1006.5 - 3.8 - - - - - - -
25/01:00pm 15.2 SW 11 21 1006.8 - 3.4 - - - - - - -
25/12:30pm 17.0 SW 8 15 1006.8 - 3.2 - - - - - - -
25/12:00pm 16.2 SW 5 11 1007.0 - 3.2 Recent precip. - - - - - -
25/11:30am 15.8 SW 6 10 1007.3 - 3.0 - - - - - - -
25/11:00am 15.8 SW 8 12 1007.5 - 2.0 - - - - - - -
25/10:30am 15.8 SW 7 11 1007.3 - 2.0 - - - - - - -
25/10:00am 15.8 SW 9 14 1007.1 - 2.0 - - - - - - -
25/09:30am 15.9 SW 6 10 1007.0 - 1.4 - - - - - - -
25/09:00am 16.1 SW 6 12 1007.0 - 28.8 - - - - - - -
25/08:30am 16.1 W 3 5 1006.9 - 28.8 - - - - - - -
25/08:00am 15.5 WSW 4 6 1006.8 - 28.8 - - - - - - -
25/07:30am 15.4 W 3 5 1006.4 - 28.4 - - - - - - -
25/07:00am 15.5 SW 4 7 1006.2 - 23.4 - - - - - - -
25/06:30am 17.0 NNW 9 15 1006.0 - 21.6 - - - - - - -
25/06:00am 16.9 NNW 12 14 1006.1 - 21.4 Recent precip. - - - - - -
25/05:30am 16.8 NNW 10 13 1006.2 - 21.0 - - - - - - -
25/05:00am 16.8 N 11 15 1006.3 - 19.6 - - - - - - -
25/04:30am 16.6 NNE 5 9 1006.4 - 19.2 - - - - - - -
25/04:00am 16.6 NNE 6 9 1006.7 - 18.4 - - - - - - -
25/03:30am 16.6 N 7 9 1007.1 - 18.2 - - - - - - -
25/03:00am 16.5 NNE 5 7 1007.6 - 18.2 Rain - - - - - -
25/02:30am 16.6 NE 6 7 1008.1 - 18.0 - - - - - - -
25/02:00am 16.5 ENE 3 3 1008.6 - 15.4 - - - - - - -
25/01:30am 16.6 NE 4 6 1009.3 - 14.0 - - - - - - -
25/01:00am 16.6 ENE 6 8 1009.9 - 11.8 - - - - - - -
25/12:30am 16.7 E 5 6 1010.3 - 9.6 - - - - - - -
25/12:00am 16.9 E 10 12 1010.4 - 4.4 Rain - - - - - -
 
Date/Time
EST
Temp
°C
Wind Pressure Rain since
9am
mm
Weather Cloud Vis
km
Sea
Height
m
Swell
Dir  Spd
kts
Gust
kts
hPa Trend Height
m
Period
s
Dir
24/11:30pm 16.9 ESE 11 15 1010.9 - 2.0 - - - - - - -
24/11:00pm 16.7 SE 9 13 1011.0 - 1.6 - - - - - - -
24/10:30pm 16.3 SSW 8 21 1012.2 - 1.6 - - - - - - -
24/10:00pm 16.4 SSE 9 12 1012.0 - 1.4 - - - - - - -
24/09:30pm 16.5 S 7 13 1012.7 - 1.4 - - - - - - -
24/09:00pm 16.8 WNW 7 13 1013.8 - 0.6 Recent precip. - - - - - -
24/08:30pm 17.0 ESE 10 12 1013.1 - 0.6 - - - - - - -
24/08:00pm 17.0 SE 7 10 1013.4 - 0.2 - - - - - - -
24/07:30pm 17.0 SE 6 9 1013.9 - 0.2 - - - - - - -
24/07:00pm 17.0 SE 6 9 1013.8 - 0.2 - - - - - - -
24/06:30pm 17.3 SE 4 5 1014.2 - 0.0 - - - - - - -
24/06:00pm 17.3 SSE 5 7 1014.2 - 0.0 - - - - - - -
24/05:30pm 17.4 SSE 6 8 1014.2 - 0.0 - - - - - - -
24/05:00pm 17.8 SSE 6 8 1014.3 - 0.0 - - - - - - -
24/04:30pm 18.6 SSE 6 7 1014.6 - 0.0 - - - - - - -
24/04:00pm 19.9 S 2 3 1014.8 - 0.0 - - - - - - -
24/03:30pm 19.8 SSE 2 3 1015.2 - 0.0 - - - - - - -
24/03:00pm 19.3 SSE 2 3 1015.5 - 0.0 - - - - - - -
24/02:30pm 19.3 SE 2 2 1015.8 - 0.0 - - - - - - -
24/02:00pm 20.8 E 4 4 1016.1 - 0.0 - - - - - - -
24/01:30pm 20.9 E 4 5 1016.5 - 0.0 - - - - - - -
24/01:00pm 20.8 ENE 4 5 1017.0 - 0.0 - - - - - - -
24/12:30pm 19.8 E 3 4 1017.6 - 0.0 - - - - - - -
24/12:00pm 19.5 E 4 5 1018.2 - 0.0 - - - - - - -
24/11:30am 19.5 ENE 3 4 1018.9 - 0.0 - - - - - - -
24/11:00am 18.5 NE 5 7 1019.2 - 0.0 - - - - - - -
24/10:30am 17.8 NE 7 9 1019.7 - 0.0 - - - - - - -
24/10:00am 18.1 NE 5 7 1019.9 - 0.0 - - - - - - -
24/09:30am 16.7 NE 4 5 1020.4 - 0.0 - - - - - - -
24/09:00am 15.7 NE 3 4 1020.7 - 0.0 - - - - - - -
24/08:30am 15.7 NE 2 4 1020.9 - 0.0 - - - - - - -
24/08:00am 15.6 NNE 3 5 1020.9 - 0.0 - - - - - - -
24/07:30am 15.9 NE 4 5 1020.7 - 0.0 - - - - - - -
24/07:00am 15.8 NE 2 4 1020.7 - 0.0 - - - - - - -
24/06:30am 15.8 NE 4 5 1020.6 - 0.0 - - - - - - -
24/06:00am 15.9 NE 5 6 1020.7 - 0.0 - - - - - - -
24/05:30am 16.1 NNE 3 5 1020.7 - 0.0 - - - - - - -
24/05:00am 16.1 N 2 3 1020.9 - 0.0 - - - - - - -
24/04:30am 16.0 NNW 3 4 1020.9 - 0.0 - - - - - - -
24/04:00am 16.1 NNW 2 3 1020.9 - 0.0 - - - - - - -
24/03:30am 16.2 NNW 2 3 1020.9 - 0.0 - - - - - - -
24/03:00am 16.2 NW 2 4 1021.2 - 0.0 - - - - - - -
24/02:30am 16.2 NW 1 2 1021.3 - 0.0 - - - - - - -
24/02:00am 16.0 NNW 3 5 1021.6 - 0.0 - - - - - - -
24/01:30am 16.0 NE 4 4 1021.7 - 0.0 - - - - - - -
24/01:00am 16.1 NNE 2 5 1022.0 - 0.0 - - - - - - -
24/12:30am 16.1 NE 5 7 1022.1 - 0.0 - - - - - - -
24/12:00am 16.2 ENE 4 5 1022.3 - 0.0 - - - - - - -
 
Date/Time
EST
Temp
°C
Wind Pressure Rain since
9am
mm
Weather Cloud Vis
km
Sea
Height
m
Swell
Dir  Spd
kts
Gust
kts
hPa Trend Height
m
Period
s
Dir
23/11:30pm 16.0 E 2 4 1022.7 - 0.0 - - - - - - -
23/11:00pm 16.5 CALM 0 0 1022.9 - 0.0 - - - - - - -
23/10:30pm 16.5 WSW 1 2 1023.2 - 0.0 - - - - - - -
23/10:00pm 16.3 WSW 3 4 1023.3 - 0.0 - - - - - - -
23/09:30pm 15.8 SW 2 3 1023.4 - 0.0 - - - - - - -
23/09:00pm 15.8 NW 1 1 1023.3 - 0.0 - - - - - - -
23/08:30pm 16.3 CALM 0 0 1023.3 - 0.0 - - - - - - -
23/08:00pm 16.6 SW 2 4 1023.2 - 0.0 - - - - - - -
23/07:30pm 16.9 SW 3 4 1023.2 - 0.0 - - - - - - -
23/07:00pm 17.1 WSW 2 3 1023.2 - 0.0 - - - - - - -
23/06:30pm 17.2 WSW 2 3 1023.0 - 0.0 - - - - - - -
23/06:00pm 17.3 SW 3 5 1022.6 - 0.0 - - - - - - -
23/05:30pm 17.7 SW 3 5 1022.5 - 0.0 - - - - - - -
23/05:00pm 18.2 WSW 2 4 1022.3 - 0.0 - - - - - - -
23/04:30pm 18.5 SW 2 4 1022.3 - 0.0 - - - - - - -
23/04:00pm 18.8 SSW 4 6 1022.3 - 0.0 - - - - - - -
23/03:30pm 19.4 W 3 5 1022.2 - 0.0 - - - - - - -
23/03:00pm 19.6 NW 3 5 1022.2 - 0.0 - - - - - - -
23/02:30pm 19.3 WNW 3 6 1022.3 - 0.0 - - - - - - -
23/02:00pm 19.3 W 5 8 1022.4 - 0.0 - - - - - - -
23/01:30pm 19.5 WNW 5 10 1022.5 - 0.0 - - - - - - -
23/01:00pm 19.3 WNW 5 11 1022.8 - 0.0 - - - - - - -
23/12:30pm 19.0 NW 4 8 1023.1 - 0.0 - - - - - - -
23/12:00pm 18.6 NNW 4 5 1023.5 - 0.0 - - - - - - -
23/11:30am 18.6 NNW 5 7 1023.9 - 0.0 - - - - - - -
23/11:00am 18.6 WNW 2 5 1024.2 - 0.0 - - - - - - -
23/10:30am 18.1 WNW 3 5 1024.2 - 0.0 - - - - - - -
23/10:00am 17.8 NNW 5 7 1024.2 - 0.0 - - - - - - -
23/09:30am 17.7 NNW 5 7 1024.4 - 0.0 - - - - - - -
23/09:00am 17.5 NNW 4 6 1024.3 - 0.0 - - - - - - -
23/08:30am 17.1 NNW 4 6 1024.2 - 0.0 - - - - - - -
23/08:00am 16.5 NNW 3 5 1024.0 - 0.0 - - - - - - -
23/07:30am 16.1 NNW 2 3 1023.8 - 0.0 - - - - - - -
23/07:00am 15.8 NNW 4 6 1023.6 - 0.0 - - - - - - -
23/06:30am 16.0 NNW 2 5 1023.4 - 0.0 - - - - - - -
23/06:00am 16.2 NNW 4 6 1023.2 - 0.0 - - - - - - -
23/05:30am 16.2 NNW 4 6 1023.1 - 0.0 - - - - - - -
23/05:00am 16.2 NW 4 9 1022.9 - 0.0 - - - - - - -
23/04:30am 16.1 WNW 1 4 1022.7 - 0.0 - - - - - - -
23/04:00am 16.4 NW 3 5 1022.8 - 0.0 - - - - - - -
23/03:30am 16.5 NNW 4 6 1022.7 - 0.0 - - - - - - -
23/03:00am 16.5 NW 1 3 1022.8 - 0.0 - - - - - - -
23/02:30am 16.6 NW 1 3 1023.1 - 0.0 - - - - - - -
23/02:00am 16.8 NW 1 3 1023.3 - 0.0 - - - - - - -
23/01:30am 16.6 NNW 1 4 1023.3 - 0.0 - - - - - - -
23/01:00am 16.9 NNW 4 6 1023.3 - 0.0 - - - - - - -
23/12:30am 16.8 NW 1 3 1023.3 - 0.0 - - - - - - -
23/12:00am 16.6 NW 2 5 1023.4 - 0.0 - - - - - - -
 
Date/Time
EST
Temp
°C
Wind Pressure Rain since
9am
mm
Weather Cloud Vis
km
Sea
Height
m
Swell
Dir  Spd
kts
Gust
kts
hPa Trend Height
m
Period
s
Dir
22/11:30pm 16.6 NNW 4 6 1023.4 - 0.0 - - - - - - -
22/11:00pm 16.6 NNW 2 3 1023.4 - 0.0 - - - - - - -

Other Formats:

Comma delimited format used in spreadsheet applications
http://www.bom.gov.au/fwo/IDV60701/IDV60701.94892.axf

JavaScript Object Notation format (JSON) in row-major order
http://www.bom.gov.au/fwo/IDV60701/IDV60701.94892.json